createdAt,value
2022-10-01T00:00:20.943Z,39.40
2022-10-01T00:05:44.741Z,39.65
2022-10-01T00:10:49.415Z,39.13
2022-10-01T00:15:53.328Z,36.83
2022-10-01T00:20:56.646Z,36.67
2022-10-01T00:26:11.287Z,37.10
2022-10-01T00:31:16.788Z,38.28
2022-10-01T00:36:20.227Z,37.20
2022-10-01T00:41:25.536Z,37.78
2022-10-01T00:46:34.938Z,39.15
2022-10-01T00:51:41.350Z,38.28
2022-10-01T00:56:47.324Z,38.78
2022-10-01T01:01:50.976Z,41.72
2022-10-01T01:06:58.402Z,40.65
2022-10-01T01:12:12.708Z,40.28
2022-10-01T01:17:25.159Z,44.03
2022-10-01T01:22:34.678Z,41.25
2022-10-01T01:27:43.875Z,41.70
2022-10-01T01:32:55.313Z,41.38
2022-10-01T01:38:04.099Z,40.88
2022-10-01T01:43:12.297Z,49.67
2022-10-01T01:48:17.012Z,46.65
2022-10-01T01:53:20.678Z,43.28
2022-10-01T01:58:26.343Z,50.13
2022-10-01T02:03:34.408Z,46.28
2022-10-01T02:08:43.626Z,50.20
2022-10-01T02:13:56.907Z,50.33
2022-10-01T02:19:06.169Z,46.38
2022-10-01T02:24:19.969Z,46.22
2022-10-01T02:29:24.957Z,48.60
2022-10-01T02:34:31.483Z,50.45
2022-10-01T02:39:37.527Z,54.38
2022-10-01T02:44:45.099Z,50.13
2022-10-01T02:49:50.842Z,50.33
2022-10-01T02:54:58.236Z,47.05
2022-10-01T03:00:04.785Z,48.47
2022-10-01T03:05:10.439Z,51.25
2022-10-01T03:10:16.119Z,51.03
2022-10-01T03:15:20.678Z,52.90
2022-10-01T03:20:26.618Z,52.33
2022-10-01T03:25:30.466Z,55.85
2022-10-01T03:30:35.691Z,52.25
2022-10-01T03:35:40.411Z,55.75
2022-10-01T03:40:43.994Z,53.55
2022-10-01T03:45:47.601Z,52.70
2022-10-01T03:50:56.039Z,64.75
2022-10-01T03:56:00.442Z,68.35
2022-10-01T04:01:04.076Z,64.88
2022-10-01T04:06:09.096Z,52.67
2022-10-01T04:11:13.221Z,52.40
2022-10-01T04:21:42.251Z,53.42
2022-10-01T04:26:45.678Z,51.95
2022-10-01T04:31:49.080Z,49.70
2022-10-01T04:36:53.755Z,49.45
2022-10-01T04:41:57.040Z,45.13
2022-10-01T04:47:00.398Z,45.80
2022-10-01T04:52:06.067Z,47.90
2022-10-01T04:57:09.436Z,49.35
2022-10-01T05:02:13.555Z,63.85
2022-10-01T05:07:19.528Z,57.95
2022-10-01T05:12:25.528Z,54.05
2022-10-01T05:17:29.055Z,47.28
2022-10-01T05:22:34.360Z,45.63
2022-10-01T05:27:40.531Z,44.88
2022-10-01T05:32:43.922Z,47.08
2022-10-01T05:37:48.673Z,44.85
2022-10-01T05:42:52.044Z,40.97
2022-10-01T05:47:59.249Z,43.05
2022-10-01T05:53:16.175Z,40.75
2022-10-01T05:58:19.601Z,46.30
2022-10-01T06:03:23.299Z,45.25
2022-10-01T06:08:28.759Z,48.53
2022-10-01T06:13:32.198Z,48.28
2022-10-01T06:18:35.504Z,47.83
2022-10-01T06:23:40.204Z,43.70
2022-10-01T06:28:43.579Z,42.67
2022-10-01T06:33:47.031Z,43.22
2022-10-01T06:38:52.071Z,43.55
2022-10-01T06:43:55.509Z,46.25
2022-10-01T06:48:59.547Z,47.03
2022-10-01T06:54:04.770Z,50.22
2022-10-01T06:59:08.491Z,48.90
2022-10-01T07:04:13.152Z,46.17
2022-10-01T07:09:18.039Z,42.50
2022-10-01T07:14:21.786Z,40.55
2022-10-01T07:19:25.295Z,39.05
2022-10-01T07:24:30.134Z,39.30
2022-10-01T07:29:33.583Z,36.80
2022-10-01T07:34:40.259Z,35.15
2022-10-01T07:39:44.979Z,33.97
2022-10-01T07:44:48.516Z,33.92
2022-10-01T07:49:51.808Z,34.70
2022-10-01T07:54:56.537Z,33.72
2022-10-01T08:00:00.547Z,32.90
2022-10-01T08:05:19.083Z,31.38
2022-10-01T08:10:24.366Z,30.50
2022-10-01T08:15:28.870Z,30.08
2022-10-01T08:20:32.327Z,30.20
2022-10-01T08:25:37.834Z,29.88
2022-10-01T08:30:43.050Z,29.58
2022-10-01T08:35:46.664Z,28.10
2022-10-01T08:40:52.479Z,27.67
2022-10-01T08:46:08.598Z,29.48
2022-10-01T08:51:29.429Z,30.98
2022-10-01T08:56:40.764Z,29.63
2022-10-01T09:01:46.792Z,28.30
2022-10-01T09:07:04.835Z,29.92
2022-10-01T09:12:29.441Z,28.77
2022-10-01T09:17:54.333Z,28.90
2022-10-01T09:23:14.907Z,26.98
2022-10-01T09:28:22.192Z,26.73
2022-10-01T09:33:32.142Z,26.85
2022-10-01T09:43:44.389Z,26.70
2022-10-01T09:48:57.714Z,27.42
2022-10-01T09:54:05.938Z,26.27
2022-10-01T09:59:18.104Z,27.58
2022-10-01T10:04:23.877Z,28.25
2022-10-01T10:09:30.242Z,26.70
2022-10-01T10:14:37.081Z,27.00
2022-10-01T10:19:41.528Z,27.67
2022-10-01T10:24:44.962Z,30.17
2022-10-01T10:29:49.845Z,29.35
2022-10-01T10:35:02.079Z,26.70
2022-10-01T10:40:09.118Z,30.38
2022-10-01T10:45:21.213Z,34.00
2022-10-01T10:50:33.414Z,35.50
2022-10-01T10:55:39.177Z,30.98
2022-10-01T11:00:50.903Z,25.23
2022-10-01T11:05:57.323Z,21.48
2022-10-01T11:11:13.111Z,19.08
2022-10-01T11:16:36.530Z,16.52
2022-10-01T11:21:53.087Z,13.27
2022-10-01T11:27:01.124Z,13.23
2022-10-01T11:32:19.728Z,11.75
2022-10-01T11:37:41.632Z,11.45
2022-10-01T11:42:47.680Z,12.93
2022-10-01T11:47:57.379Z,11.98
2022-10-01T11:58:35.650Z,14.68
2022-10-01T12:08:56.934Z,13.68
2022-10-01T12:14:12.658Z,12.65
2022-10-01T12:19:25.049Z,13.40
2022-10-01T12:24:31.969Z,11.15
2022-10-01T12:29:46.278Z,12.52
2022-10-01T12:35:04.589Z,12.00
2022-10-01T12:40:22.812Z,12.93
2022-10-01T12:45:35.438Z,10.32
2022-10-01T12:51:08.421Z,11.95
2022-10-01T12:56:17.961Z,12.75
2022-10-01T13:01:37.300Z,16.00
2022-10-01T13:06:55.436Z,16.02
2022-10-01T13:12:20.633Z,18.58
2022-10-01T13:17:34.882Z,17.08
2022-10-01T13:22:48.786Z,18.40
2022-10-01T13:27:59.618Z,17.02
2022-10-01T13:33:03.413Z,15.73
2022-10-01T13:38:17.263Z,17.17
2022-10-01T13:43:24.391Z,15.70
2022-10-01T13:48:34.768Z,17.20
2022-10-01T13:53:50.101Z,13.93
2022-10-01T13:58:53.535Z,11.57
2022-10-01T14:04:05.312Z,8.98
2022-10-01T14:09:16.695Z,10.48
2022-10-01T14:14:41.377Z,8.40
2022-10-01T14:19:46.990Z,8.82
2022-10-01T14:25:20.985Z,12.90
2022-10-01T14:30:30.686Z,11.30
2022-10-01T14:35:39.452Z,7.32
2022-10-01T14:40:46.908Z,18.20
2022-10-01T14:45:53.104Z,7.65
2022-10-01T14:50:58.540Z,12.02
2022-10-01T14:56:08.224Z,8.60
2022-10-01T15:01:18.987Z,8.68
2022-10-01T15:06:26.218Z,10.57
2022-10-01T15:11:32.718Z,11.15
2022-10-01T15:16:37.176Z,8.80
2022-10-01T15:21:46.488Z,10.77
2022-10-01T15:26:52.669Z,11.20
2022-10-01T15:32:00.191Z,12.38
2022-10-01T15:37:04.934Z,12.43
2022-10-01T15:42:20.567Z,12.57
2022-10-01T15:47:33.080Z,15.18
2022-10-01T15:52:52.233Z,12.55
2022-10-01T15:57:59.487Z,15.10
2022-10-01T16:03:04.035Z,12.95
2022-10-01T16:08:07.477Z,16.45
2022-10-01T16:13:39.380Z,13.77
2022-10-01T16:18:43.621Z,19.33
2022-10-01T16:23:49.613Z,15.38
2022-10-01T16:28:57.604Z,15.32
2022-10-01T16:34:01.173Z,16.20
2022-10-01T16:39:06.682Z,19.48
2022-10-01T16:44:14.179Z,17.52
2022-10-01T16:49:18.415Z,18.23
2022-10-01T16:54:24.453Z,16.98
2022-10-01T16:59:29.127Z,17.88
2022-10-01T17:04:34.055Z,18.75
2022-10-01T17:09:37.611Z,24.48
2022-10-01T17:14:42.274Z,18.67
2022-10-01T17:19:45.568Z,19.40
2022-10-01T17:24:49.276Z,15.20
2022-10-01T17:29:54.352Z,20.38
2022-10-01T17:34:57.670Z,21.08
2022-10-01T17:40:01.355Z,20.35
2022-10-01T17:45:09.316Z,20.60
2022-10-01T17:50:13.243Z,26.75
2022-10-01T17:55:17.277Z,28.73
2022-10-01T18:00:22.048Z,20.73
2022-10-01T18:05:26.722Z,16.25
2022-10-01T18:10:30.176Z,14.20
2022-10-01T18:15:34.908Z,13.20
2022-10-01T18:20:39.547Z,16.48
2022-10-01T18:25:42.985Z,15.30
2022-10-01T18:30:48.560Z,9.88
2022-10-01T18:35:58.628Z,6.22
2022-10-01T18:41:10.133Z,6.28
2022-10-01T18:46:28.111Z,6.22
2022-10-01T18:51:51.070Z,5.38
2022-10-01T18:57:06.448Z,5.40
2022-10-01T19:02:32.625Z,6.20
2022-10-01T19:07:48.580Z,7.25
2022-10-01T19:13:16.959Z,8.68
2022-10-01T19:18:38.300Z,8.27
2022-10-01T19:24:16.360Z,11.50
2022-10-01T19:29:36.482Z,11.82
2022-10-01T19:34:45.536Z,15.63
2022-10-01T19:39:52.873Z,14.70
2022-10-01T19:45:01.304Z,16.85
2022-10-01T19:50:19.864Z,15.90
2022-10-01T19:55:24.879Z,10.85
2022-10-01T20:00:29.808Z,11.05
2022-10-01T20:05:45.001Z,7.53
2022-10-01T20:10:56.511Z,8.38
2022-10-01T20:16:09.754Z,9.88
2022-10-01T20:21:31.599Z,8.75
2022-10-01T20:26:40.719Z,9.63
2022-10-01T20:31:52.564Z,8.35
2022-10-01T20:37:09.237Z,8.63
2022-10-01T20:42:19.188Z,9.02
2022-10-01T20:52:40.713Z,9.70
2022-10-01T20:57:50.325Z,9.27
2022-10-01T21:03:02.047Z,12.25
2022-10-01T21:08:17.302Z,10.75
2022-10-01T21:13:30.474Z,10.63
2022-10-01T21:18:41.659Z,11.18
2022-10-01T21:23:59.725Z,11.88
2022-10-01T21:29:22.164Z,11.32
2022-10-01T21:34:37.627Z,11.85
2022-10-01T21:39:54.377Z,11.00
2022-10-01T21:45:30.594Z,13.07
2022-10-01T21:50:50.224Z,11.73
2022-10-01T21:56:13.485Z,10.98
2022-10-01T22:01:27.433Z,11.13
2022-10-01T22:06:36.500Z,10.77
2022-10-01T22:11:48.377Z,8.90
2022-10-01T22:16:56.714Z,9.95
2022-10-01T22:22:06.112Z,9.48
2022-10-01T22:27:17.719Z,9.07
2022-10-01T22:32:25.470Z,10.32
2022-10-01T22:37:34.829Z,10.55
2022-10-01T22:42:48.651Z,9.48
2022-10-01T22:48:05.185Z,11.35
2022-10-01T22:53:21.896Z,9.63
2022-10-01T22:58:37.784Z,8.75
2022-10-01T23:04:00.618Z,9.88
2022-10-01T23:09:12.651Z,9.60
2022-10-01T23:14:36.256Z,8.57
2022-10-01T23:19:48.861Z,7.68
2022-10-01T23:25:14.884Z,7.63
2022-10-01T23:30:21.566Z,7.35
2022-10-01T23:35:37.435Z,7.80
2022-10-01T23:40:43.854Z,8.10
2022-10-01T23:45:55.267Z,8.38
2022-10-01T23:51:03.338Z,8.68
2022-10-01T23:56:29.308Z,7.32
